Time;durP1;ratioP1;P1;durP2;ratioP2;P2;SDS_P1;SDS_P2;PMS_P1;PMS_P2;Temp;Humidity;BMP_temperature;BMP_pressure;BME280_temperature;BME280_humidity;BME280_pressure;Samples;Min_cycle;Max_cycle;Signal;HPM_P1;HPM_P2
2022/04/17 00:01:47;;;;;;;7.32;3.80;;;6.00;99.90;;;;;;5055782;28;20043;-58
2022/04/17 00:04:14;;;;;;;7.40;3.88;;;6.00;99.90;;;;;;5055797;28;20025;-52
2022/04/17 00:06:41;;;;;;;5.47;3.45;;;6.00;99.90;;;;;;5074275;28;20451;-57
2022/04/17 00:09:07;;;;;;;7.32;3.08;;;6.00;99.90;;;;;;5056024;28;20029;-58
2022/04/17 00:11:36;;;;;;;4.50;2.78;;;5.90;99.90;;;;;;5056475;28;20059;-55
2022/04/17 00:14:01;;;;;;;7.40;3.63;;;5.80;99.90;;;;;;5074093;28;20028;-56
2022/04/17 00:16:27;;;;;;;6.38;3.42;;;5.80;99.90;;;;;;5074214;28;20028;-56
2022/04/17 00:18:53;;;;;;;5.85;3.40;;;5.70;99.90;;;;;;5073827;28;20017;-58
2022/04/17 00:21:20;;;;;;;5.22;3.03;;;5.70;99.90;;;;;;5056175;28;20056;-59
2022/04/17 00:23:46;;;;;;;5.30;3.25;;;5.50;99.90;;;;;;5056028;28;20157;-54
2022/04/17 00:26:12;;;;;;;3.55;2.47;;;5.50;99.90;;;;;;5073634;28;20078;-56
2022/04/17 00:28:38;;;;;;;4.00;2.92;;;5.50;99.90;;;;;;5073475;28;20071;-58
2022/04/17 00:31:04;;;;;;;4.63;3.58;;;5.50;99.90;;;;;;5073412;28;20032;-58
2022/04/17 00:33:31;;;;;;;8.57;3.28;;;5.40;99.90;;;;;;5073551;28;20024;-56
2022/04/17 00:35:57;;;;;;;4.80;3.17;;;5.30;99.90;;;;;;5055359;28;20177;-57
2022/04/17 00:38:23;;;;;;;4.00;2.95;;;5.20;99.90;;;;;;5055346;28;20031;-57
2022/04/17 00:40:49;;;;;;;5.75;3.08;;;5.20;99.90;;;;;;5056473;28;20108;-57
2022/04/17 00:43:22;;;;;;;16.58;6.85;;;5.20;99.90;;;;;;5055320;28;20042;-59
2022/04/17 00:45:48;;;;;;;8.40;3.53;;;5.00;99.90;;;;;;5073632;28;20079;-56
2022/04/17 00:48:13;;;;;;;6.47;3.15;;;4.90;99.90;;;;;;5055129;28;20414;-57
2022/04/17 00:50:39;;;;;;;5.10;3.25;;;4.90;99.90;;;;;;5073246;28;20046;-59
2022/04/17 00:53:06;;;;;;;4.85;3.60;;;4.90;99.90;;;;;;5055714;28;20119;-58
2022/04/17 00:55:33;;;;;;;7.20;2.63;;;4.80;99.90;;;;;;5073310;28;20100;-59
2022/04/17 00:58:00;;;;;;;7.20;3.45;;;4.80;99.90;;;;;;5072877;28;20040;-59
2022/04/17 01:00:26;;;;;;;5.38;3.60;;;4.70;99.90;;;;;;5072800;28;20044;-58
2022/04/17 01:02:52;;;;;;;6.57;3.45;;;4.50;99.90;;;;;;5072723;28;20055;-59
2022/04/17 01:05:19;;;;;;;5.60;3.33;;;4.40;99.90;;;;;;5055148;28;20020;-55
2022/04/17 01:07:46;;;;;;;4.30;3.00;;;4.40;99.90;;;;;;5073030;28;20050;-58
2022/04/17 01:10:12;;;;;;;5.47;3.13;;;4.50;99.90;;;;;;5055168;28;20036;-59
2022/04/17 01:12:37;;;;;;;5.95;3.60;;;4.50;99.90;;;;;;5055026;28;20394;-55
2022/04/17 01:15:04;;;;;;;6.72;3.50;;;4.50;99.90;;;;;;5072326;28;20085;-55
2022/04/17 01:17:29;;;;;;;3.72;2.83;;;4.50;99.90;;;;;;5072561;28;20025;-58
2022/04/17 01:19:55;;;;;;;5.47;3.17;;;4.40;99.90;;;;;;5054647;28;20027;-58
2022/04/17 01:22:21;;;;;;;3.95;2.78;;;4.40;99.90;;;;;;5072706;28;20501;-58
2022/04/17 01:27:31;;;;;;;4.30;3.30;;;4.40;99.90;;;;;;5072866;28;20044;-59
2022/04/17 01:29:56;;;;;;;5.85;2.85;;;4.40;99.90;;;;;;5054851;28;20033;-59
2022/04/17 01:32:22;;;;;;;4.15;2.80;;;4.40;99.90;;;;;;5072927;28;20387;-59
2022/04/17 01:34:48;;;;;;;4.22;3.08;;;4.40;99.90;;;;;;5055279;28;20462;-59
2022/04/17 01:37:14;;;;;;;4.63;3.13;;;4.20;99.90;;;;;;5072498;28;20025;-57
2022/04/17 01:39:40;;;;;;;9.05;3.28;;;4.20;99.90;;;;;;5072623;28;20080;-58
2022/04/17 01:42:06;;;;;;;7.88;3.10;;;4.20;99.90;;;;;;5054841;28;20052;-56
2022/04/17 01:44:32;;;;;;;9.70;3.33;;;4.20;99.90;;;;;;5072498;28;20017;-58
2022/04/17 01:46:59;;;;;;;8.07;4.57;;;4.20;99.90;;;;;;5072288;28;20032;-59
2022/04/17 01:49:25;;;;;;;5.38;3.17;;;4.20;99.90;;;;;;5054438;28;20028;-58
2022/04/17 01:51:52;;;;;;;4.20;2.83;;;4.20;99.90;;;;;;5054735;28;20024;-58
2022/04/17 01:54:19;;;;;;;3.80;2.70;;;4.20;99.90;;;;;;5072530;28;20047;-57
2022/04/17 01:56:48;;;;;;;3.83;2.80;;;4.20;99.90;;;;;;5054213;28;20021;-58
2022/04/17 01:59:18;;;;;;;5.60;2.92;;;4.20;99.90;;;;;;5054538;28;20036;-57
2022/04/17 02:01:45;;;;;;;6.03;3.17;;;4.00;99.90;;;;;;5054653;28;20025;-56
2022/04/17 02:04:11;;;;;;;5.72;2.70;;;4.00;99.90;;;;;;5072461;28;20025;-58
2022/04/17 02:06:40;;;;;;;6.63;3.05;;;3.90;99.90;;;;;;5072606;28;20455;-58
2022/04/17 02:09:08;;;;;;;4.72;3.13;;;3.90;99.90;;;;;;5054146;28;20032;-56
2022/04/17 02:11:34;;;;;;;5.20;3.30;;;3.80;99.90;;;;;;5054368;28;20032;-56
2022/04/17 02:14:00;;;;;;;6.15;3.33;;;3.80;99.90;;;;;;5054450;28;20119;-57
2022/04/17 02:16:26;;;;;;;6.35;3.53;;;3.80;99.90;;;;;;5054448;28;20020;-58
2022/04/17 02:18:52;;;;;;;6.22;3.08;;;3.80;99.90;;;;;;5054178;28;20131;-59
2022/04/17 02:21:19;;;;;;;5.75;3.58;;;3.80;99.90;;;;;;5072151;28;20024;-58
2022/04/17 02:23:45;;;;;;;5.05;3.03;;;3.80;99.90;;;;;;5053918;28;20027;-55
2022/04/17 02:26:13;;;;;;;5.97;3.47;;;3.90;99.90;;;;;;5055602;28;20024;-58
2022/04/17 02:28:40;;;;;;;8.48;3.22;;;3.80;99.90;;;;;;5057555;28;20029;-58
2022/04/17 02:31:07;;;;;;;7.28;3.42;;;3.80;99.90;;;;;;5058594;28;20036;-57
2022/04/17 02:33:34;;;;;;;3.60;2.60;;;3.80;99.90;;;;;;5076167;28;20036;-59
2022/04/17 02:36:00;;;;;;;4.38;3.22;;;3.70;99.90;;;;;;5075581;28;20035;-55
2022/04/17 02:38:26;;;;;;;3.63;2.92;;;3.70;99.90;;;;;;5057373;28;20048;-59
2022/04/17 02:40:53;;;;;;;7.03;3.58;;;3.80;99.90;;;;;;5058307;28;20024;-57
2022/04/17 02:43:19;;;;;;;6.15;3.60;;;3.80;99.90;;;;;;5075560;28;20025;-57
2022/04/17 02:45:45;;;;;;;7.63;3.35;;;3.70;99.90;;;;;;5075396;28;20029;-58
2022/04/17 02:48:11;;;;;;;5.38;3.15;;;3.60;99.90;;;;;;5075208;28;20108;-59
2022/04/17 02:50:36;;;;;;;4.85;3.15;;;3.70;99.90;;;;;;5075392;28;20107;-58
2022/04/17 02:53:02;;;;;;;8.02;3.60;;;3.70;99.90;;;;;;5075296;28;20074;-55
2022/04/17 02:55:28;;;;;;;6.05;3.33;;;3.70;99.90;;;;;;5075425;28;20117;-57
2022/04/17 02:57:54;;;;;;;5.72;2.92;;;3.60;99.90;;;;;;5057190;28;20054;-58
2022/04/17 03:00:21;;;;;;;7.18;3.35;;;3.60;99.90;;;;;;5057106;28;20118;-58
2022/04/17 03:05:37;;;;;;;5.35;2.92;;;3.60;99.90;;;;;;5075566;28;20120;-57
2022/04/17 03:08:07;;;;;;;7.20;3.47;;;3.50;99.90;;;;;;5075012;28;20016;-56
2022/04/17 03:10:37;;;;;;;5.78;3.05;;;3.60;99.90;;;;;;5057015;28;20032;-56
2022/04/17 03:13:06;;;;;;;5.97;3.58;;;3.60;99.90;;;;;;5056914;28;20079;-57
2022/04/17 03:15:32;;;;;;;6.70;3.22;;;3.60;99.90;;;;;;5057062;28;20021;-59
2022/04/17 03:17:59;;;;;;;4.25;2.97;;;3.50;99.90;;;;;;5056930;28;20040;-57
2022/04/17 03:20:28;;;;;;;8.07;3.80;;;3.50;99.90;;;;;;5057146;28;20106;-57
2022/04/17 03:22:54;;;;;;;5.65;3.42;;;3.40;99.90;;;;;;5056989;28;20027;-59
2022/04/17 03:25:21;;;;;;;10.40;3.42;;;3.40;99.90;;;;;;5056931;28;20027;-56
2022/04/17 03:27:47;;;;;;;8.02;3.97;;;3.30;99.90;;;;;;5074762;28;20447;-57
2022/04/17 03:30:17;;;;;;;10.90;3.80;;;3.20;99.90;;;;;;5056633;28;20361;-60
2022/04/17 03:32:46;;;;;;;6.85;3.45;;;3.20;99.90;;;;;;5056763;28;20035;-59
2022/04/17 03:35:13;;;;;;;6.32;3.30;;;3.20;99.90;;;;;;5056617;28;20064;-56
2022/04/17 03:37:42;;;;;;;4.25;2.88;;;3.10;99.90;;;;;;5056767;28;20024;-56
2022/04/17 03:40:10;;;;;;;6.32;2.85;;;3.10;99.90;;;;;;5056610;28;20024;-56
2022/04/17 03:42:35;;;;;;;4.68;2.78;;;3.10;99.90;;;;;;5074349;28;20027;-59
2022/04/17 03:45:02;;;;;;;6.15;3.40;;;3.10;99.90;;;;;;5074553;28;20020;-58
2022/04/17 03:47:28;;;;;;;4.13;3.15;;;3.20;99.90;;;;;;5074493;28;20398;-57
2022/04/17 03:49:54;;;;;;;5.00;3.10;;;3.20;99.90;;;;;;5074092;28;20028;-58
2022/04/17 03:52:19;;;;;;;4.45;2.90;;;3.20;99.90;;;;;;5056308;28;20024;-58
2022/04/17 03:54:46;;;;;;;3.97;2.78;;;3.10;99.90;;;;;;5074431;28;20029;-59
2022/04/17 03:57:11;;;;;;;4.65;3.17;;;3.20;99.90;;;;;;5074034;28;20024;-55
2022/04/17 03:59:37;;;;;;;9.23;4.03;;;3.10;99.90;;;;;;5074511;28;20241;-58
2022/04/17 04:02:03;;;;;;;5.00;3.17;;;3.10;99.90;;;;;;5074140;28;20161;-56
2022/04/17 04:04:29;;;;;;;5.05;3.00;;;3.00;99.90;;;;;;5073618;28;20024;-59
2022/04/17 04:06:55;;;;;;;4.43;3.20;;;3.00;99.90;;;;;;5055784;28;20035;-59
2022/04/17 04:09:20;;;;;;;7.47;3.75;;;3.00;99.90;;;;;;5073781;28;20028;-58
2022/04/17 04:11:47;;;;;;;7.45;3.63;;;3.00;99.90;;;;;;5056634;28;20054;-56
2022/04/17 04:14:12;;;;;;;5.03;3.42;;;3.00;99.90;;;;;;5056207;28;20034;-58
2022/04/17 04:16:39;;;;;;;5.90;3.10;;;3.00;99.90;;;;;;5073681;28;20116;-59
2022/04/17 04:19:05;;;;;;;6.70;3.50;;;2.90;99.90;;;;;;5073545;28;20466;-58
2022/04/17 04:21:31;;;;;;;4.40;2.90;;;2.90;99.90;;;;;;5073807;28;20112;-58
2022/04/17 04:23:57;;;;;;;5.15;3.70;;;3.00;99.90;;;;;;5055449;28;20017;-56
2022/04/17 04:26:22;;;;;;;4.90;3.88;;;3.00;99.90;;;;;;5055983;28;20059;-58
2022/04/17 04:28:48;;;;;;;7.50;3.88;;;3.00;99.90;;;;;;5055434;28;20085;-59
2022/04/17 04:31:15;;;;;;;6.70;3.40;;;2.90;99.90;;;;;;5056033;28;20028;-55
2022/04/17 04:33:42;;;;;;;5.22;3.30;;;2.80;99.90;;;;;;5073863;28;20024;-58
2022/04/17 04:36:11;;;;;;;8.63;3.55;;;2.70;99.90;;;;;;5055795;28;20115;-59
2022/04/17 04:38:37;;;;;;;7.18;3.58;;;2.70;99.90;;;;;;5056106;28;20029;-57
2022/04/17 04:41:03;;;;;;;6.97;3.28;;;2.80;99.90;;;;;;5056623;28;20024;-54
2022/04/17 04:43:29;;;;;;;6.05;3.53;;;2.80;99.90;;;;;;5055856;28;20024;-56
2022/04/17 04:46:07;;;;;;;7.88;4.43;;;2.80;99.90;;;;;;5073669;28;20025;-58
2022/04/17 04:51:22;;;;;;;11.40;3.95;;;2.80;99.90;;;;;;5073970;28;20112;-54
2022/04/17 04:53:49;;;;;;;6.53;3.83;;;3.10;99.90;;;;;;5055711;28;20025;-58
2022/04/17 04:56:15;;;;;;;7.28;3.30;;;3.50;99.90;;;;;;5073441;28;20443;-59
2022/04/17 04:58:41;;;;;;;7.28;3.33;;;4.10;99.90;;;;;;5055666;28;20021;-57
2022/04/17 05:01:07;;;;;;;6.75;3.58;;;4.60;99.90;;;;;;5055840;28;20028;-58
2022/04/17 05:03:34;;;;;;;5.38;3.30;;;5.00;99.90;;;;;;5055594;28;20028;-58
2022/04/17 05:05:59;;;;;;;6.82;4.10;;;5.50;99.90;;;;;;5055361;28;20024;-59
2022/04/17 05:08:25;;;;;;;6.35;3.78;;;6.00;99.90;;;;;;5074025;28;20029;-56
2022/04/17 05:10:51;;;;;;;4.45;3.75;;;6.40;99.90;;;;;;5055544;28;20032;-60
2022/04/17 05:13:17;;;;;;;7.20;3.70;;;6.80;99.90;;;;;;5073438;28;20031;-57
2022/04/17 05:15:42;;;;;;;7.85;3.70;;;7.20;99.90;;;;;;5055222;28;20055;-57
2022/04/17 05:18:13;;;;;;;4.45;3.30;;;7.30;99.90;;;;;;5073158;28;20086;-53
2022/04/17 05:20:39;;;;;;;3.95;3.55;;;7.70;99.90;;;;;;5055746;28;20078;-57
2022/04/17 05:23:19;;;;;;;6.07;3.72;;;8.10;99.90;;;;;;5055618;28;20063;-56
2022/04/17 05:25:47;;;;;;;5.15;3.35;;;8.80;99.90;;;;;;5073467;28;20029;-55
2022/04/17 05:28:14;;;;;;;6.55;3.47;;;9.50;99.90;;;;;;5055146;28;20048;-56
2022/04/17 05:30:40;;;;;;;6.07;3.90;;;10.00;99.90;;;;;;5055184;28;20016;-52
2022/04/17 05:33:06;;;;;;;7.20;4.47;;;10.30;99.90;;;;;;5073265;28;20027;-57
2022/04/17 05:35:32;;;;;;;5.63;3.95;;;10.60;99.90;;;;;;5055147;28;20421;-57
2022/04/17 05:37:57;;;;;;;8.65;3.28;;;11.00;99.90;;;;;;5055015;28;20090;-54
2022/04/17 05:40:23;;;;;;;4.80;3.30;;;11.20;99.90;;;;;;5073154;28;20079;-57
2022/04/17 05:42:48;;;;;;;11.10;3.15;;;11.80;99.90;;;;;;5072791;28;20040;-58
2022/04/17 05:45:14;;;;;;;5.10;2.85;;;12.20;99.90;;;;;;5055071;28;20020;-55
2022/04/17 05:47:41;;;;;;;5.22;3.35;;;12.50;99.90;;;;;;5073202;28;20029;-57
2022/04/17 05:50:07;;;;;;;5.40;3.15;;;12.80;99.90;;;;;;5072984;28;20025;-58
2022/04/17 05:52:33;;;;;;;3.88;2.78;;;13.20;99.90;;;;;;5055091;28;20025;-57
2022/04/17 05:54:58;;;;;;;4.95;3.10;;;13.90;99.90;;;;;;5055410;28;20043;-56
2022/04/17 05:57:24;;;;;;;3.17;2.78;;;14.50;99.90;;;;;;5055562;28;20028;-57
2022/04/17 05:59:50;;;;;;;3.67;2.80;;;14.90;99.10;;;;;;5055058;28;20119;-58
2022/04/17 06:02:15;;;;;;;6.55;3.65;;;15.10;98.00;;;;;;5058228;28;20075;-58
2022/04/17 06:04:42;;;;;;;6.30;3.03;;;15.40;95.60;;;;;;5076767;28;20108;-60
2022/04/17 06:07:08;;;;;;;3.42;2.75;;;15.60;98.10;;;;;;5076710;28;20035;-60
2022/04/17 06:09:34;;;;;;;4.63;2.72;;;16.10;95.40;;;;;;5058809;28;20024;-57
2022/04/17 06:12:00;;;;;;;3.50;3.03;;;16.60;95.20;;;;;;5058680;28;20054;-60
2022/04/17 06:14:26;;;;;;;4.18;3.13;;;17.10;92.70;;;;;;5058628;28;20032;-59
2022/04/17 06:16:52;;;;;;;5.30;3.60;;;17.00;92.50;;;;;;5076446;28;20478;-59
2022/04/17 06:19:17;;;;;;;4.65;3.30;;;17.30;92.00;;;;;;5076540;28;20028;-60
2022/04/17 06:21:43;;;;;;;5.13;3.60;;;17.50;87.40;;;;;;5054789;28;20028;-60
2022/04/17 06:24:09;;;;;;;5.97;3.67;;;18.10;89.60;;;;;;5056541;28;20538;-60
2022/04/17 06:26:35;;;;;;;4.25;3.80;;;18.80;88.10;;;;;;5038864;28;20025;-60
2022/04/17 06:29:03;;;;;;;4.65;3.22;;;18.70;84.00;;;;;;5038790;28;20035;-60
2022/04/17 06:31:30;;;;;;;5.93;3.50;;;19.00;81.70;;;;;;5056569;28;20079;-60
2022/04/17 06:33:55;;;;;;;5.75;3.42;;;19.60;79.10;;;;;;5038516;28;20032;-58
2022/04/17 06:36:21;;;;;;;5.47;3.75;;;20.10;77.50;;;;;;5056103;28;20029;-59
2022/04/17 06:38:46;;;;;;;5.65;3.63;;;20.30;73.00;;;;;;5038385;28;20079;-58
2022/04/17 06:41:12;;;;;;;5.00;3.63;;;20.70;73.10;;;;;;5038373;28;20060;-60
2022/04/17 06:43:38;;;;;;;5.30;3.78;;;21.10;71.40;;;;;;5055987;28;20478;-55
2022/04/17 06:46:03;;;;;;;4.43;3.65;;;20.20;69.80;;;;;;5039300;28;20044;-60
2022/04/17 06:48:29;;;;;;;4.78;3.65;;;20.80;73.70;;;;;;5038450;28;20025;-59
2022/04/17 06:50:56;;;;;;;6.18;4.53;;;21.70;73.60;;;;;;5042901;28;20040;-60
2022/04/17 06:53:22;;;;;;;4.95;4.45;;;21.90;66.70;;;;;;5058444;28;20437;-59
2022/04/17 06:55:49;;;;;;;5.55;3.60;;;21.60;64.40;;;;;;5058403;28;20035;-60
2022/04/17 06:58:18;;;;;;;5.03;3.97;;;21.30;68.00;;;;;;5058561;28;20020;-58
2022/04/17 07:00:44;;;;;;;6.03;3.95;;;21.40;65.20;;;;;;5076004;28;20059;-58
2022/04/17 07:03:10;;;;;;;4.35;3.30;;;20.90;63.90;;;;;;5058248;28;20111;-60
2022/04/17 07:05:36;;;;;;;9.48;3.55;;;21.50;64.50;;;;;;5075655;28;20121;-59
2022/04/17 07:08:04;;;;;;;4.05;3.67;;;21.20;64.60;;;;;;5075606;28;20490;-60
2022/04/17 07:10:31;;;;;;;3.75;3.33;;;21.70;64.70;;;;;;5076176;28;20032;-58
2022/04/17 07:12:57;;;;;;;5.05;3.72;;;22.80;64.00;;;;;;5056969;28;20021;-60
2022/04/17 07:15:24;;;;;;;3.75;3.38;;;22.90;60.70;;;;;;5075512;28;20020;-60
2022/04/17 07:17:51;;;;;;;4.97;3.70;;;22.40;60.10;;;;;;5057636;28;20024;-58
2022/04/17 07:20:20;;;;;;;4.28;3.17;;;23.10;59.60;;;;;;5057495;28;20024;-60
2022/04/17 07:22:47;;;;;;;5.50;3.58;;;23.50;60.90;;;;;;5037830;28;20056;-60
2022/04/17 07:25:14;;;;;;;6.25;3.28;;;24.80;59.10;;;;;;5055084;28;20021;-60
2022/04/17 07:27:45;;;;;;;4.07;2.97;;;26.40;56.70;;;;;;5055154;28;20025;-60
2022/04/17 07:30:22;;;;;;;5.25;3.28;;;26.70;58.70;;;;;;5081019;23;20031;-61
2022/04/17 07:32:50;;;;;;;5.97;3.33;;;26.90;52.50;;;;;;5095165;28;20024;-57
2022/04/17 07:35:17;;;;;;;4.80;3.05;;;27.40;51.60;;;;;;5095253;28;20469;-57
2022/04/17 07:37:57;;;;;;;3.30;2.67;;;26.70;52.70;;;;;;5095282;28;20059;-58
2022/04/17 07:40:26;;;;;;;3.92;2.60;;;26.50;51.30;;;;;;5077645;28;20024;-59
2022/04/17 07:42:53;;;;;;;4.00;2.60;;;26.80;52.90;;;;;;5077347;28;20100;-59
2022/04/17 07:45:20;;;;;;;4.68;2.80;;;26.30;51.20;;;;;;5075630;28;20055;-59
2022/04/17 07:47:46;;;;;;;4.10;2.72;;;27.00;53.00;;;;;;5074913;28;20021;-59
2022/04/17 07:50:14;;;;;;;4.40;2.72;;;28.30;52.00;;;;;;5057161;28;20032;-59
2022/04/17 07:52:41;;;;;;;2.35;2.10;;;28.90;50.10;;;;;;5056944;28;20025;-59
2022/04/17 07:55:09;;;;;;;3.92;2.25;;;30.10;52.10;;;;;;5074825;28;20494;-59
2022/04/17 08:00:21;;;;;;;4.90;2.55;;;30.30;48.40;;;;;;5080531;28;20057;-58
2022/04/17 08:02:55;;;;;;;3.10;1.90;;;31.30;48.30;;;;;;5077054;28;20073;-59
2022/04/17 08:05:24;;;;;;;3.67;2.42;;;31.40;46.30;;;;;;5095340;28;20020;-58
2022/04/17 08:07:51;;;;;;;3.15;2.00;;;30.50;46.00;;;;;;5094972;28;20016;-58
2022/04/17 08:10:17;;;;;;;2.42;2.00;;;29.90;45.50;;;;;;5077661;28;20035;-55
2022/04/17 08:12:44;;;;;;;2.10;1.90;;;30.60;43.80;;;;;;5076555;28;20020;-54
2022/04/17 08:15:10;;;;;;;4.13;2.35;;;30.70;44.60;;;;;;5094744;28;20026;-55
2022/04/17 08:17:35;;;;;;;3.40;1.80;;;29.70;41.80;;;;;;5076859;28;20024;-55
2022/04/17 08:20:01;;;;;;;1.92;1.45;;;29.50;43.90;;;;;;5076466;28;20023;-55
2022/04/17 08:22:28;;;;;;;4.47;1.80;;;28.30;45.40;;;;;;5076310;28;20452;-53
2022/04/17 08:24:53;;;;;;;4.65;2.05;;;27.40;43.60;;;;;;5076021;28;20020;-57
2022/04/17 08:27:19;;;;;;;3.20;1.63;;;26.00;43.80;;;;;;5076516;28;20032;-53
2022/04/17 08:29:45;;;;;;;2.33;1.70;;;26.10;43.90;;;;;;5076481;28;20081;-53
2022/04/17 08:32:10;;;;;;;4.18;2.08;;;25.30;45.10;;;;;;5076810;28;20059;-54
2022/04/17 08:34:36;;;;;;;2.90;1.40;;;24.80;44.80;;;;;;5094596;28;20023;-56
2022/04/17 08:37:02;;;;;;;3.20;1.60;;;25.40;46.10;;;;;;5076086;28;20043;-56
2022/04/17 08:39:27;;;;;;;4.43;1.70;;;25.50;43.00;;;;;;5094351;28;20020;-55
2022/04/17 08:41:56;;;;;;;3.50;1.58;;;26.10;44.00;;;;;;5094116;28;20024;-55
2022/04/17 08:44:22;;;;;;;4.05;1.77;;;25.50;45.80;;;;;;5094418;28;20031;-54
2022/04/17 08:46:48;;;;;;;3.25;1.45;;;25.70;44.80;;;;;;5076392;28;20032;-52
2022/04/17 08:49:13;;;;;;;3.40;1.45;;;25.70;44.20;;;;;;5094044;28;20032;-56
2022/04/17 08:51:39;;;;;;;3.75;1.70;;;25.30;44.50;;;;;;5076027;28;20020;-55
2022/04/17 08:54:06;;;;;;;1.63;1.50;;;26.00;44.70;;;;;;5075973;28;20048;-54
2022/04/17 08:56:34;;;;;;;3.53;1.85;;;24.20;44.80;;;;;;5075805;28;20119;-53
2022/04/17 08:59:00;;;;;;;2.25;1.48;;;24.30;46.80;;;;;;5075786;28;20110;-56
2022/04/17 09:01:26;;;;;;;3.90;1.55;;;25.70;46.10;;;;;;5076010;28;20085;-53
2022/04/17 09:03:52;;;;;;;4.30;1.40;;;26.70;45.90;;;;;;5093776;28;20023;-53
2022/04/17 09:06:19;;;;;;;2.38;1.45;;;27.70;42.90;;;;;;5075955;28;20028;-56
2022/04/17 09:09:03;;;;;;;2.13;1.10;;;27.50;42.60;;;;;;5093720;28;20032;-58
2022/04/17 09:11:41;;;;;;;3.25;1.60;;;27.30;42.40;;;;;;5075683;28;20032;-56
2022/04/17 09:14:06;;;;;;;3.35;1.88;;;27.90;42.50;;;;;;5075885;28;20020;-55
2022/04/17 09:16:38;;;;;;;2.53;1.75;;;27.60;42.70;;;;;;5075682;28;20032;-57
2022/04/17 09:19:16;;;;;;;2.47;1.70;;;28.70;42.00;;;;;;5093895;28;20022;-57
2022/04/17 09:21:42;;;;;;;2.55;1.92;;;29.00;42.80;;;;;;5075489;28;20069;-55
2022/04/17 09:24:15;;;;;;;2.63;1.60;;;29.20;41.60;;;;;;5075527;28;20028;-55
2022/04/17 09:26:51;;;;;;;2.67;1.42;;;27.00;42.30;;;;;;5075569;28;20020;-58
2022/04/17 09:29:28;;;;;;;1.52;1.40;;;26.90;43.30;;;;;;5093784;28;20024;-58
2022/04/17 09:32:05;;;;;;;2.33;1.60;;;28.60;42.50;;;;;;5093428;28;20378;-57
2022/04/17 09:34:55;;;;;;;1.98;1.50;;;30.30;42.00;;;;;;5076210;28;20024;-56
2022/04/17 09:37:22;;;;;;;2.40;1.40;;;30.40;41.90;;;;;;5097644;28;20028;-54
2022/04/17 09:39:50;;;;;;;3.20;1.42;;;28.20;41.30;;;;;;5097670;28;20024;-57
2022/04/17 09:42:26;;;;;;;1.92;1.25;;;26.00;43.60;;;;;;5079729;28;20024;-52
2022/04/17 09:44:54;;;;;;;2.35;1.35;;;25.60;44.80;;;;;;5079459;28;20044;-56
2022/04/17 09:47:31;;;;;;;2.60;1.60;;;27.40;45.60;;;;;;5079577;28;20094;-56
2022/04/17 09:50:00;;;;;;;4.55;1.92;;;27.60;42.60;;;;;;5079165;28;20035;-55
2022/04/17 09:52:32;;;;;;;2.45;1.30;;;28.00;43.30;;;;;;5097336;28;20035;-52
2022/04/17 09:55:03;;;;;;;3.25;1.50;;;27.50;42.60;;;;;;5097534;28;20016;-52
2022/04/17 09:57:40;;;;;;;3.90;1.45;;;26.40;44.40;;;;;;5079410;28;20120;-52
2022/04/17 10:00:10;;;;;;;9.18;2.50;;;26.50;43.10;;;;;;5080198;28;20025;-54
2022/04/17 10:02:38;;;;;;;3.30;1.65;;;26.00;43.40;;;;;;5079122;28;20462;-59
2022/04/17 10:05:08;;;;;;;3.22;1.20;;;26.40;42.50;;;;;;5080056;28;20036;-60
2022/04/17 10:07:36;;;;;;;4.57;1.50;;;26.60;42.80;;;;;;5079177;28;20043;-59
2022/04/17 10:10:02;;;;;;;2.28;1.50;;;24.80;43.60;;;;;;5079156;28;20024;-60
2022/04/17 10:12:29;;;;;;;2.60;1.67;;;23.60;45.50;;;;;;5079555;28;20118;-60
2022/04/17 10:14:55;;;;;;;2.50;1.40;;;23.60;45.60;;;;;;5079010;28;20024;-60
2022/04/17 10:17:22;;;;;;;1.38;1.27;;;23.50;46.10;;;;;;5096674;28;20024;-60
2022/04/17 10:19:52;;;;;;;3.50;1.38;;;23.40;46.90;;;;;;5078652;28;20045;-60
2022/04/17 10:22:20;;;;;;;3.22;1.23;;;22.60;47.10;;;;;;5097370;28;20047;-61
2022/04/17 10:24:54;;;;;;;3.08;1.35;;;22.80;49.20;;;;;;5096593;28;20065;-61
2022/04/17 10:27:26;;;;;;;5.15;1.52;;;23.40;47.50;;;;;;5078416;28;20105;-60
2022/04/17 10:30:23;;;;;;;3.45;1.20;;;22.70;48.90;;;;;;5096495;28;20024;-59
2022/04/17 10:33:09;;;;;;;2.55;1.20;;;23.80;50.20;;;;;;5078968;28;20043;-59
2022/04/17 10:36:02;;;;;;;5.10;1.17;;;23.80;48.30;;;;;;5095866;28;20056;-60
2022/04/17 10:38:49;;;;;;;2.75;1.92;;;23.70;49.10;;;;;;5078396;28;20024;-58
2022/04/17 10:41:16;;;;;;;4.13;1.42;;;23.80;47.60;;;;;;5078846;28;20023;-57
2022/04/17 10:43:41;;;;;;;2.65;1.20;;;23.40;47.40;;;;;;5076278;28;20038;-58
2022/04/17 10:46:15;;;;;;;2.78;1.20;;;21.80;48.30;;;;;;5066517;28;20024;-59
2022/04/17 10:48:46;;;;;;;2.22;1.67;;;21.40;50.40;;;;;;5075986;28;20478;-55
2022/04/17 10:51:12;;;;;;;;;;;21.60;49.40;;;;;;5078432;28;20024;-59
2022/04/17 10:53:50;;;;;;;1.63;1.33;;;21.60;49.90;;;;;;5075535;28;19904;-59
2022/04/17 10:56:16;;;;;;;2.60;1.15;;;21.00;50.80;;;;;;5095442;28;20378;-59
2022/04/17 10:58:49;;;;;;;2.33;1.30;;;20.60;50.00;;;;;;5096151;28;20020;-60
2022/04/17 11:01:15;;;;;;;2.58;1.00;;;20.10;51.40;;;;;;5096312;28;20024;-59
2022/04/17 11:03:54;;;;;;;1.92;1.17;;;19.30;50.90;;;;;;5076766;28;20021;-57
2022/04/17 11:06:31;;;;;;;4.30;1.52;;;18.60;52.20;;;;;;5088445;28;20033;-57
2022/04/17 11:09:18;;;;;;;2.70;1.25;;;18.30;53.30;;;;;;5068624;28;20085;-55
2022/04/17 11:11:45;;;;;;;2.45;1.35;;;17.30;54.30;;;;;;5077622;28;20060;-58
2022/04/17 11:14:18;;;;;;;1.77;1.00;;;17.30;56.40;;;;;;5077830;28;20020;-59
2022/04/17 11:16:58;;;;;;;4.53;1.40;;;17.60;54.80;;;;;;5095734;28;20024;-59
2022/04/17 11:19:35;;;;;;;1.33;1.23;;;17.60;54.80;;;;;;5077196;28;20405;-59
2022/04/17 11:22:04;;;;;;;1.35;0.93;;;17.60;54.40;;;;;;5072813;28;20025;-58
2022/04/17 11:24:55;;;;;;;2.25;0.90;;;17.70;53.70;;;;;;5075367;28;20108;-59
2022/04/17 11:27:42;;;;;;;1.42;1.10;;;18.10;54.60;;;;;;5075361;28;20028;-57
2022/04/17 11:30:14;;;;;;;1.35;0.95;;;17.50;53.30;;;;;;5057436;28;20037;-59
2022/04/17 11:32:39;;;;;;;2.00;1.05;;;17.10;53.90;;;;;;5075515;28;20024;-59
2022/04/17 11:35:17;;;;;;;4.43;1.30;;;17.30;54.40;;;;;;5075113;28;20096;-59
2022/04/17 11:38:09;;;;;;;3.53;1.20;;;17.20;54.10;;;;;;5073807;28;20029;-59
2022/04/17 11:40:37;;;;;;;2.30;0.90;;;16.90;53.60;;;;;;5069263;28;20398;-56
2022/04/17 11:43:07;;;;;;;2.17;1.20;;;16.60;53.70;;;;;;5058729;28;20029;-55
2022/04/17 11:45:33;;;;;;;2.33;1.25;;;16.50;54.40;;;;;;5072326;28;20027;-59
2022/04/17 11:48:04;;;;;;;4.10;1.65;;;16.50;54.00;;;;;;5089553;28;20021;-57
2022/04/17 11:50:30;;;;;;;1.60;0.82;;;16.50;54.50;;;;;;5073156;28;20058;-58
2022/04/17 11:53:02;;;;;;;1.25;1.08;;;16.70;54.40;;;;;;5074652;28;20029;-57
2022/04/17 11:55:35;;;;;;;4.90;1.00;;;17.00;54.20;;;;;;5073319;28;20465;-59
2022/04/17 11:58:02;;;;;;;2.53;0.90;;;17.30;53.80;;;;;;5072453;28;20028;-57
2022/04/17 12:00:30;;;;;;;4.55;1.13;;;17.10;54.70;;;;;;5067973;28;20031;-58
2022/04/17 12:03:02;;;;;;;1.23;0.90;;;16.80;53.60;;;;;;5094752;28;20032;-59
2022/04/17 12:05:30;;;;;;;3.72;1.15;;;16.60;54.50;;;;;;5076706;28;20031;-59
2022/04/17 12:08:09;;;;;;;1.42;1.00;;;16.60;53.00;;;;;;5075676;28;20032;-57
2022/04/17 12:10:35;;;;;;;2.05;0.90;;;16.60;53.10;;;;;;5072175;28;20028;-59
2022/04/17 12:13:12;;;;;;;1.17;0.70;;;16.90;54.80;;;;;;5087417;28;20028;-59
2022/04/17 12:15:38;;;;;;;1.52;1.00;;;17.10;54.10;;;;;;5064716;28;20029;-59
2022/04/17 12:18:04;;;;;;;3.10;0.93;;;17.20;53.20;;;;;;5074145;28;20028;-59
2022/04/17 12:20:29;;;;;;;2.22;1.10;;;17.30;50.70;;;;;;5094397;28;20070;-56
2022/04/17 12:22:55;;;;;;;2.30;1.00;;;17.00;51.40;;;;;;5094656;28;20016;-57
2022/04/17 12:25:24;;;;;;;1.73;0.75;;;16.90;54.00;;;;;;5076420;28;20031;-55
2022/04/17 12:27:52;;;;;;;1.70;1.00;;;16.70;56.20;;;;;;5093557;28;20028;-62
2022/04/17 12:30:20;;;;;;;2.28;1.00;;;16.90;57.70;;;;;;5076128;28;20032;-62
2022/04/17 12:32:47;;;;;;;2.88;0.90;;;17.30;54.80;;;;;;5077069;28;20058;-62
2022/04/17 12:35:24;;;;;;;4.30;1.00;;;17.50;54.10;;;;;;5076405;28;20081;-62
2022/04/17 12:37:50;;;;;;;4.35;0.80;;;17.60;53.90;;;;;;5076882;28;20024;-62
2022/04/17 12:40:21;;;;;;;1.42;1.08;;;17.80;54.20;;;;;;5094185;28;20048;-62
2022/04/17 12:42:48;;;;;;;2.20;1.02;;;17.80;54.90;;;;;;5076068;28;20576;-62
2022/04/17 12:45:26;;;;;;;2.63;1.00;;;18.00;54.30;;;;;;5076434;28;20055;-62
2022/04/17 12:48:04;;;;;;;1.33;1.02;;;18.10;53.20;;;;;;5094098;28;20039;-62
2022/04/17 12:50:30;;;;;;;2.45;1.10;;;18.30;52.40;;;;;;5076184;28;20107;-62
2022/04/17 12:52:57;;;;;;;1.95;1.40;;;18.40;48.70;;;;;;5076611;28;20126;-62
2022/04/17 12:55:34;;;;;;;1.10;1.00;;;18.20;48.70;;;;;;5076089;28;20031;-62
2022/04/17 12:58:01;;;;;;;1.00;0.80;;;18.40;50.30;;;;;;5093828;28;20027;-62
2022/04/17 13:00:29;;;;;;;1.15;0.88;;;18.10;51.50;;;;;;5093734;28;20069;-62
2022/04/17 13:03:15;;;;;;;3.00;1.10;;;17.80;52.60;;;;;;5075849;28;20032;-62
2022/04/17 13:05:41;;;;;;;2.00;1.00;;;17.70;55.00;;;;;;5075683;28;20024;-62
2022/04/17 13:08:08;;;;;;;4.03;0.93;;;18.00;53.60;;;;;;5093735;28;20024;-62